sensor_id;sensor_type;location;lat;lon;timestamp;P1;durP1;ratioP1;P2;durP2;ratioP2
49812;SDS011;35706;52.100;5.056;2022-11-20T00:00:19;19.10;;;9.70;;
49812;SDS011;35706;52.100;5.056;2022-11-20T00:01:20;17.30;;;9.23;;
49812;SDS011;35706;52.100;5.056;2022-11-20T00:02:23;15.53;;;9.23;;
49812;SDS011;35706;52.100;5.056;2022-11-20T00:03:23;21.13;;;9.00;;
49812;SDS011;35706;52.100;5.056;2022-11-20T00:04:23;17.50;;;8.93;;
49812;SDS011;35706;52.100;5.056;2022-11-20T00:05:24;20.03;;;9.00;;
49812;SDS011;35706;52.100;5.056;2022-11-20T00:06:25;19.73;;;9.37;;
49812;SDS011;35706;52.100;5.056;2022-11-20T00:07:27;17.60;;;9.40;;
49812;SDS011;35706;52.100;5.056;2022-11-20T00:08:27;17.23;;;8.73;;
49812;SDS011;35706;52.100;5.056;2022-11-20T00:09:27;16.00;;;9.07;;
49812;SDS011;35706;52.100;5.056;2022-11-20T00:10:27;16.83;;;7.70;;
49812;SDS011;35706;52.100;5.056;2022-11-20T00:11:28;14.00;;;7.87;;
49812;SDS011;35706;52.100;5.056;2022-11-20T00:12:29;16.53;;;8.20;;
49812;SDS011;35706;52.100;5.056;2022-11-20T00:13:30;15.10;;;8.23;;
49812;SDS011;35706;52.100;5.056;2022-11-20T00:14:30;18.90;;;8.93;;
49812;SDS011;35706;52.100;5.056;2022-11-20T00:15:31;16.97;;;8.17;;
49812;SDS011;35706;52.100;5.056;2022-11-20T00:16:32;16.33;;;8.27;;
49812;SDS011;35706;52.100;5.056;2022-11-20T00:17:33;15.03;;;8.37;;
49812;SDS011;35706;52.100;5.056;2022-11-20T00:18:33;22.57;;;9.40;;
49812;SDS011;35706;52.100;5.056;2022-11-20T00:19:34;21.93;;;10.20;;
49812;SDS011;35706;52.100;5.056;2022-11-20T00:20:34;18.50;;;9.20;;
49812;SDS011;35706;52.100;5.056;2022-11-20T00:21:34;20.17;;;10.20;;
49812;SDS011;35706;52.100;5.056;2022-11-20T00:22:34;22.20;;;9.80;;
49812;SDS011;35706;52.100;5.056;2022-11-20T00:23:35;26.03;;;10.80;;
49812;SDS011;35706;52.100;5.056;2022-11-20T00:24:35;24.27;;;10.80;;
49812;SDS011;35706;52.100;5.056;2022-11-20T00:25:35;22.23;;;10.37;;
49812;SDS011;35706;52.100;5.056;2022-11-20T00:26:36;21.23;;;10.27;;
49812;SDS011;35706;52.100;5.056;2022-11-20T00:27:36;25.87;;;10.43;;
49812;SDS011;35706;52.100;5.056;2022-11-20T00:28:37;21.23;;;10.23;;
49812;SDS011;35706;52.100;5.056;2022-11-20T00:29:37;19.27;;;9.20;;
49812;SDS011;35706;52.100;5.056;2022-11-20T00:30:37;20.70;;;9.50;;
49812;SDS011;35706;52.100;5.056;2022-11-20T00:31:37;19.13;;;9.30;;
49812;SDS011;35706;52.100;5.056;2022-11-20T00:32:38;18.60;;;9.37;;
49812;SDS011;35706;52.100;5.056;2022-11-20T00:33:38;20.00;;;9.43;;
49812;SDS011;35706;52.100;5.056;2022-11-20T00:34:38;19.03;;;8.80;;
49812;SDS011;35706;52.100;5.056;2022-11-20T00:35:39;19.43;;;9.40;;
49812;SDS011;35706;52.100;5.056;2022-11-20T00:36:39;25.47;;;10.07;;
49812;SDS011;35706;52.100;5.056;2022-11-20T00:37:39;20.27;;;9.20;;
49812;SDS011;35706;52.100;5.056;2022-11-20T00:38:40;17.10;;;9.03;;
49812;SDS011;35706;52.100;5.056;2022-11-20T00:39:40;17.13;;;9.13;;
49812;SDS011;35706;52.100;5.056;2022-11-20T00:40:40;14.27;;;8.53;;
49812;SDS011;35706;52.100;5.056;2022-11-20T00:41:41;17.47;;;9.17;;
49812;SDS011;35706;52.100;5.056;2022-11-20T00:42:41;16.57;;;8.97;;
49812;SDS011;35706;52.100;5.056;2022-11-20T00:43:41;20.70;;;8.03;;
49812;SDS011;35706;52.100;5.056;2022-11-20T00:44:42;15.43;;;8.57;;
49812;SDS011;35706;52.100;5.056;2022-11-20T00:45:42;17.10;;;8.57;;
49812;SDS011;35706;52.100;5.056;2022-11-20T00:46:43;18.87;;;8.63;;
49812;SDS011;35706;52.100;5.056;2022-11-20T00:47:43;16.07;;;9.30;;
49812;SDS011;35706;52.100;5.056;2022-11-20T00:48:44;15.57;;;8.47;;
49812;SDS011;35706;52.100;5.056;2022-11-20T00:49:44;13.40;;;8.33;;
49812;SDS011;35706;52.100;5.056;2022-11-20T00:50:45;16.53;;;8.93;;
49812;SDS011;35706;52.100;5.056;2022-11-20T00:51:45;17.67;;;8.90;;
49812;SDS011;35706;52.100;5.056;2022-11-20T00:52:45;18.00;;;9.10;;
49812;SDS011;35706;52.100;5.056;2022-11-20T00:53:46;17.07;;;9.10;;
49812;SDS011;35706;52.100;5.056;2022-11-20T00:54:46;15.60;;;7.70;;
49812;SDS011;35706;52.100;5.056;2022-11-20T00:55:56;15.37;;;8.27;;
49812;SDS011;35706;52.100;5.056;2022-11-20T00:56:58;16.73;;;8.53;;
49812;SDS011;35706;52.100;5.056;2022-11-20T00:57:58;16.00;;;8.23;;
49812;SDS011;35706;52.100;5.056;2022-11-20T00:58:59;14.23;;;8.43;;
49812;SDS011;35706;52.100;5.056;2022-11-20T01:00:00;18.57;;;9.10;;
49812;SDS011;35706;52.100;5.056;2022-11-20T01:01:05;19.40;;;9.13;;
49812;SDS011;35706;52.100;5.056;2022-11-20T01:02:16;13.67;;;7.90;;
49812;SDS011;35706;52.100;5.056;2022-11-20T01:03:17;18.57;;;8.87;;
49812;SDS011;35706;52.100;5.056;2022-11-20T01:04:18;18.53;;;8.60;;
49812;SDS011;35706;52.100;5.056;2022-11-20T01:05:18;19.87;;;8.50;;
49812;SDS011;35706;52.100;5.056;2022-11-20T01:06:20;18.87;;;9.47;;
49812;SDS011;35706;52.100;5.056;2022-11-20T01:07:22;15.80;;;8.57;;
49812;SDS011;35706;52.100;5.056;2022-11-20T01:08:22;17.90;;;8.50;;
49812;SDS011;35706;52.100;5.056;2022-11-20T01:09:22;15.30;;;8.70;;
49812;SDS011;35706;52.100;5.056;2022-11-20T01:10:22;15.73;;;9.10;;
49812;SDS011;35706;52.100;5.056;2022-11-20T01:11:24;20.53;;;7.77;;
49812;SDS011;35706;52.100;5.056;2022-11-20T01:12:29;14.93;;;8.97;;
49812;SDS011;35706;52.100;5.056;2022-11-20T01:13:29;14.50;;;8.60;;
49812;SDS011;35706;52.100;5.056;2022-11-20T01:14:36;15.87;;;8.67;;
49812;SDS011;35706;52.100;5.056;2022-11-20T01:15:37;13.60;;;8.27;;
49812;SDS011;35706;52.100;5.056;2022-11-20T01:16:41;15.03;;;8.37;;
49812;SDS011;35706;52.100;5.056;2022-11-20T01:17:43;14.60;;;8.97;;
49812;SDS011;35706;52.100;5.056;2022-11-20T01:18:45;14.23;;;8.67;;
49812;SDS011;35706;52.100;5.056;2022-11-20T01:19:48;18.10;;;8.90;;
49812;SDS011;35706;52.100;5.056;2022-11-20T01:20:49;15.73;;;8.43;;
49812;SDS011;35706;52.100;5.056;2022-11-20T01:21:51;20.07;;;8.93;;
49812;SDS011;35706;52.100;5.056;2022-11-20T01:22:52;16.77;;;9.47;;
49812;SDS011;35706;52.100;5.056;2022-11-20T01:23:53;15.90;;;8.87;;
49812;SDS011;35706;52.100;5.056;2022-11-20T01:24:53;17.63;;;8.63;;
49812;SDS011;35706;52.100;5.056;2022-11-20T01:25:53;14.80;;;8.80;;
49812;SDS011;35706;52.100;5.056;2022-11-20T01:26:54;15.97;;;8.33;;
49812;SDS011;35706;52.100;5.056;2022-11-20T01:27:54;17.10;;;9.00;;
49812;SDS011;35706;52.100;5.056;2022-11-20T01:28:55;18.77;;;9.37;;
49812;SDS011;35706;52.100;5.056;2022-11-20T01:29:56;19.10;;;9.77;;
49812;SDS011;35706;52.100;5.056;2022-11-20T01:30:56;16.77;;;9.00;;
49812;SDS011;35706;52.100;5.056;2022-11-20T01:31:58;19.50;;;9.50;;
49812;SDS011;35706;52.100;5.056;2022-11-20T01:32:58;17.03;;;9.40;;
49812;SDS011;35706;52.100;5.056;2022-11-20T01:33:59;20.33;;;10.23;;
49812;SDS011;35706;52.100;5.056;2022-11-20T01:35:01;21.27;;;10.73;;
49812;SDS011;35706;52.100;5.056;2022-11-20T01:36:03;18.10;;;9.87;;
49812;SDS011;35706;52.100;5.056;2022-11-20T01:37:05;21.97;;;10.83;;
49812;SDS011;35706;52.100;5.056;2022-11-20T01:38:05;22.03;;;10.67;;
49812;SDS011;35706;52.100;5.056;2022-11-20T01:39:07;20.90;;;10.97;;
49812;SDS011;35706;52.100;5.056;2022-11-20T01:40:11;26.30;;;11.93;;
49812;SDS011;35706;52.100;5.056;2022-11-20T01:41:12;22.70;;;10.27;;
49812;SDS011;35706;52.100;5.056;2022-11-20T01:42:33;22.63;;;10.00;;
49812;SDS011;35706;52.100;5.056;2022-11-20T01:43:54;19.65;;;10.57;;
49812;SDS011;35706;52.100;5.056;2022-11-20T01:44:56;24.47;;;10.20;;
49812;SDS011;35706;52.100;5.056;2022-11-20T01:47:04;24.67;;;11.47;;
49812;SDS011;35706;52.100;5.056;2022-11-20T01:48:07;22.90;;;10.70;;
49812;SDS011;35706;52.100;5.056;2022-11-20T01:49:08;22.20;;;10.23;;
49812;SDS011;35706;52.100;5.056;2022-11-20T01:50:15;20.57;;;10.60;;
49812;SDS011;35706;52.100;5.056;2022-11-20T01:51:23;19.43;;;9.87;;
49812;SDS011;35706;52.100;5.056;2022-11-20T01:52:30;21.50;;;10.13;;
49812;SDS011;35706;52.100;5.056;2022-11-20T01:53:54;20.70;;;10.20;;
49812;SDS011;35706;52.100;5.056;2022-11-20T01:55:00;20.57;;;10.40;;
49812;SDS011;35706;52.100;5.056;2022-11-20T01:56:05;22.73;;;9.77;;
49812;SDS011;35706;52.100;5.056;2022-11-20T01:57:10;21.27;;;11.37;;
49812;SDS011;35706;52.100;5.056;2022-11-20T01:58:11;21.00;;;10.17;;
49812;SDS011;35706;52.100;5.056;2022-11-20T01:59:13;18.67;;;9.50;;
49812;SDS011;35706;52.100;5.056;2022-11-20T02:00:18;19.30;;;10.27;;
49812;SDS011;35706;52.100;5.056;2022-11-20T02:01:20;22.73;;;10.23;;
49812;SDS011;35706;52.100;5.056;2022-11-20T02:02:21;20.53;;;9.90;;
49812;SDS011;35706;52.100;5.056;2022-11-20T02:03:21;17.50;;;10.10;;
49812;SDS011;35706;52.100;5.056;2022-11-20T02:04:22;18.40;;;9.43;;
49812;SDS011;35706;52.100;5.056;2022-11-20T02:05:26;20.00;;;9.87;;
49812;SDS011;35706;52.100;5.056;2022-11-20T02:06:50;20.63;;;10.83;;
49812;SDS011;35706;52.100;5.056;2022-11-20T02:07:55;18.27;;;9.47;;
49812;SDS011;35706;52.100;5.056;2022-11-20T02:08:57;20.87;;;9.77;;
49812;SDS011;35706;52.100;5.056;2022-11-20T02:09:58;20.13;;;10.33;;
49812;SDS011;35706;52.100;5.056;2022-11-20T02:10:58;19.33;;;9.93;;
49812;SDS011;35706;52.100;5.056;2022-11-20T02:11:58;19.33;;;10.47;;
49812;SDS011;35706;52.100;5.056;2022-11-20T02:12:59;20.60;;;9.87;;
49812;SDS011;35706;52.100;5.056;2022-11-20T02:14:18;15.23;;;8.97;;
49812;SDS011;35706;52.100;5.056;2022-11-20T02:15:18;17.70;;;9.33;;
49812;SDS011;35706;52.100;5.056;2022-11-20T02:16:25;18.47;;;10.23;;
49812;SDS011;35706;52.100;5.056;2022-11-20T02:17:27;19.97;;;9.37;;
49812;SDS011;35706;52.100;5.056;2022-11-20T02:18:27;17.20;;;9.37;;
49812;SDS011;35706;52.100;5.056;2022-11-20T02:19:30;16.90;;;9.30;;
49812;SDS011;35706;52.100;5.056;2022-11-20T02:20:31;17.17;;;9.17;;
49812;SDS011;35706;52.100;5.056;2022-11-20T02:21:48;20.53;;;10.53;;
49812;SDS011;35706;52.100;5.056;2022-11-20T02:24:19;19.17;;;9.47;;
49812;SDS011;35706;52.100;5.056;2022-11-20T02:25:21;23.27;;;9.80;;
49812;SDS011;35706;52.100;5.056;2022-11-20T02:26:23;20.80;;;10.07;;
49812;SDS011;35706;52.100;5.056;2022-11-20T02:27:26;20.77;;;10.37;;
49812;SDS011;35706;52.100;5.056;2022-11-20T02:28:27;20.47;;;10.73;;
49812;SDS011;35706;52.100;5.056;2022-11-20T02:30:46;18.83;;;10.00;;
49812;SDS011;35706;52.100;5.056;2022-11-20T02:31:46;24.00;;;10.27;;
49812;SDS011;35706;52.100;5.056;2022-11-20T02:32:47;19.83;;;9.83;;
49812;SDS011;35706;52.100;5.056;2022-11-20T02:33:47;22.83;;;9.50;;
49812;SDS011;35706;52.100;5.056;2022-11-20T02:34:47;19.77;;;9.73;;
49812;SDS011;35706;52.100;5.056;2022-11-20T02:35:48;23.13;;;11.00;;
49812;SDS011;35706;52.100;5.056;2022-11-20T02:36:48;18.70;;;10.37;;
49812;SDS011;35706;52.100;5.056;2022-11-20T02:37:52;23.00;;;10.83;;
49812;SDS011;35706;52.100;5.056;2022-11-20T02:38:54;22.53;;;10.67;;
49812;SDS011;35706;52.100;5.056;2022-11-20T02:39:55;18.77;;;9.40;;
49812;SDS011;35706;52.100;5.056;2022-11-20T02:40:56;20.23;;;10.53;;
49812;SDS011;35706;52.100;5.056;2022-11-20T02:41:56;20.93;;;10.43;;
49812;SDS011;35706;52.100;5.056;2022-11-20T02:42:57;21.23;;;10.87;;
49812;SDS011;35706;52.100;5.056;2022-11-20T02:43:57;19.00;;;10.33;;
49812;SDS011;35706;52.100;5.056;2022-11-20T02:44:57;17.63;;;9.37;;
49812;SDS011;35706;52.100;5.056;2022-11-20T02:45:58;23.13;;;9.13;;
49812;SDS011;35706;52.100;5.056;2022-11-20T02:46:58;19.73;;;9.63;;
49812;SDS011;35706;52.100;5.056;2022-11-20T02:47:59;18.67;;;9.60;;
49812;SDS011;35706;52.100;5.056;2022-11-20T02:49:00;22.03;;;9.40;;
49812;SDS011;35706;52.100;5.056;2022-11-20T02:50:03;21.07;;;10.20;;
49812;SDS011;35706;52.100;5.056;2022-11-20T02:51:04;20.13;;;10.50;;
49812;SDS011;35706;52.100;5.056;2022-11-20T02:52:04;19.80;;;10.30;;
49812;SDS011;35706;52.100;5.056;2022-11-20T02:53:05;20.33;;;10.03;;
49812;SDS011;35706;52.100;5.056;2022-11-20T02:54:05;20.73;;;10.80;;
49812;SDS011;35706;52.100;5.056;2022-11-20T02:55:06;18.70;;;9.90;;
49812;SDS011;35706;52.100;5.056;2022-11-20T02:56:06;21.77;;;10.23;;
49812;SDS011;35706;52.100;5.056;2022-11-20T02:57:07;19.97;;;10.20;;
49812;SDS011;35706;52.100;5.056;2022-11-20T02:58:07;22.23;;;9.30;;
49812;SDS011;35706;52.100;5.056;2022-11-20T02:59:07;16.83;;;9.33;;
49812;SDS011;35706;52.100;5.056;2022-11-20T03:00:08;19.17;;;9.03;;
49812;SDS011;35706;52.100;5.056;2022-11-20T03:01:09;19.13;;;9.97;;
49812;SDS011;35706;52.100;5.056;2022-11-20T03:02:09;19.80;;;9.53;;
49812;SDS011;35706;52.100;5.056;2022-11-20T03:03:09;23.23;;;11.10;;
49812;SDS011;35706;52.100;5.056;2022-11-20T03:04:10;25.23;;;10.17;;
49812;SDS011;35706;52.100;5.056;2022-11-20T03:05:10;22.30;;;11.30;;
49812;SDS011;35706;52.100;5.056;2022-11-20T03:06:10;20.37;;;10.47;;
49812;SDS011;35706;52.100;5.056;2022-11-20T03:07:11;21.07;;;10.20;;
49812;SDS011;35706;52.100;5.056;2022-11-20T03:08:11;20.03;;;10.10;;
49812;SDS011;35706;52.100;5.056;2022-11-20T03:09:11;20.63;;;10.67;;
49812;SDS011;35706;52.100;5.056;2022-11-20T03:10:12;17.60;;;9.37;;
49812;SDS011;35706;52.100;5.056;2022-11-20T03:11:12;15.70;;;8.97;;
49812;SDS011;35706;52.100;5.056;2022-11-20T03:12:13;17.77;;;9.23;;
49812;SDS011;35706;52.100;5.056;2022-11-20T03:13:13;18.70;;;9.27;;
49812;SDS011;35706;52.100;5.056;2022-11-20T03:14:13;19.40;;;9.13;;
49812;SDS011;35706;52.100;5.056;2022-11-20T03:15:14;18.17;;;9.00;;
49812;SDS011;35706;52.100;5.056;2022-11-20T03:16:18;19.80;;;9.93;;
49812;SDS011;35706;52.100;5.056;2022-11-20T03:17:20;15.77;;;8.87;;
49812;SDS011;35706;52.100;5.056;2022-11-20T03:18:20;19.03;;;10.20;;
49812;SDS011;35706;52.100;5.056;2022-11-20T03:19:21;19.43;;;9.77;;
49812;SDS011;35706;52.100;5.056;2022-11-20T03:20:21;16.07;;;9.27;;
49812;SDS011;35706;52.100;5.056;2022-11-20T03:21:22;17.67;;;8.87;;
49812;SDS011;35706;52.100;5.056;2022-11-20T03:22:23;22.50;;;9.30;;
49812;SDS011;35706;52.100;5.056;2022-11-20T03:23:23;15.07;;;8.23;;
49812;SDS011;35706;52.100;5.056;2022-11-20T03:24:23;17.63;;;8.80;;
49812;SDS011;35706;52.100;5.056;2022-11-20T03:25:23;20.43;;;9.53;;
49812;SDS011;35706;52.100;5.056;2022-11-20T03:26:25;18.63;;;9.23;;
49812;SDS011;35706;52.100;5.056;2022-11-20T03:27:26;18.60;;;9.20;;
49812;SDS011;35706;52.100;5.056;2022-11-20T03:28:26;17.93;;;8.97;;
49812;SDS011;35706;52.100;5.056;2022-11-20T03:29:27;17.97;;;9.10;;
49812;SDS011;35706;52.100;5.056;2022-11-20T03:30:27;15.90;;;9.07;;
49812;SDS011;35706;52.100;5.056;2022-11-20T03:31:28;15.37;;;8.13;;
49812;SDS011;35706;52.100;5.056;2022-11-20T03:32:36;17.13;;;8.97;;
49812;SDS011;35706;52.100;5.056;2022-11-20T03:33:37;15.47;;;8.37;;
49812;SDS011;35706;52.100;5.056;2022-11-20T03:34:39;18.63;;;9.33;;
49812;SDS011;35706;52.100;5.056;2022-11-20T03:35:39;15.93;;;7.87;;
49812;SDS011;35706;52.100;5.056;2022-11-20T03:36:40;14.07;;;8.20;;
49812;SDS011;35706;52.100;5.056;2022-11-20T03:37:42;15.23;;;8.53;;
49812;SDS011;35706;52.100;5.056;2022-11-20T03:38:42;18.77;;;9.10;;
49812;SDS011;35706;52.100;5.056;2022-11-20T03:39:42;13.67;;;8.03;;
49812;SDS011;35706;52.100;5.056;2022-11-20T03:40:42;18.97;;;8.70;;
49812;SDS011;35706;52.100;5.056;2022-11-20T03:41:43;16.00;;;7.83;;
49812;SDS011;35706;52.100;5.056;2022-11-20T03:42:43;16.80;;;8.60;;
49812;SDS011;35706;52.100;5.056;2022-11-20T03:43:47;18.80;;;8.00;;
49812;SDS011;35706;52.100;5.056;2022-11-20T03:44:51;15.27;;;7.93;;
49812;SDS011;35706;52.100;5.056;2022-11-20T03:45:51;15.17;;;7.53;;
49812;SDS011;35706;52.100;5.056;2022-11-20T03:46:51;15.53;;;7.60;;
49812;SDS011;35706;52.100;5.056;2022-11-20T03:47:52;15.07;;;8.20;;
49812;SDS011;35706;52.100;5.056;2022-11-20T03:48:52;14.83;;;8.07;;
49812;SDS011;35706;52.100;5.056;2022-11-20T03:49:53;17.63;;;8.93;;
49812;SDS011;35706;52.100;5.056;2022-11-20T03:51:05;15.60;;;7.87;;
49812;SDS011;35706;52.100;5.056;2022-11-20T03:52:10;14.27;;;8.30;;
49812;SDS011;35706;52.100;5.056;2022-11-20T03:53:10;22.03;;;8.87;;
49812;SDS011;35706;52.100;5.056;2022-11-20T03:54:11;18.83;;;9.60;;
49812;SDS011;35706;52.100;5.056;2022-11-20T03:55:11;16.97;;;7.97;;
49812;SDS011;35706;52.100;5.056;2022-11-20T03:56:12;16.50;;;8.47;;
49812;SDS011;35706;52.100;5.056;2022-11-20T03:57:13;15.27;;;8.57;;
49812;SDS011;35706;52.100;5.056;2022-11-20T03:58:14;15.40;;;8.30;;
49812;SDS011;35706;52.100;5.056;2022-11-20T03:59:14;16.30;;;8.83;;
49812;SDS011;35706;52.100;5.056;2022-11-20T04:00:14;16.20;;;8.17;;
49812;SDS011;35706;52.100;5.056;2022-11-20T04:01:21;16.63;;;9.03;;
49812;SDS011;35706;52.100;5.056;2022-11-20T04:02:22;16.90;;;8.73;;
49812;SDS011;35706;52.100;5.056;2022-11-20T04:03:23;15.57;;;8.57;;
49812;SDS011;35706;52.100;5.056;2022-11-20T04:04:23;18.50;;;9.03;;
49812;SDS011;35706;52.100;5.056;2022-11-20T04:05:23;14.63;;;8.03;;
49812;SDS011;35706;52.100;5.056;2022-11-20T04:06:25;16.70;;;7.97;;
49812;SDS011;35706;52.100;5.056;2022-11-20T04:07:26;15.73;;;8.07;;
49812;SDS011;35706;52.100;5.056;2022-11-20T04:08:28;15.63;;;8.20;;
49812;SDS011;35706;52.100;5.056;2022-11-20T04:09:28;15.53;;;8.23;;
49812;SDS011;35706;52.100;5.056;2022-11-20T04:10:28;13.23;;;7.80;;
49812;SDS011;35706;52.100;5.056;2022-11-20T04:11:30;18.30;;;8.57;;
49812;SDS011;35706;52.100;5.056;2022-11-20T04:12:32;17.60;;;9.20;;
49812;SDS011;35706;52.100;5.056;2022-11-20T04:13:33;13.07;;;7.77;;
49812;SDS011;35706;52.100;5.056;2022-11-20T04:14:33;18.33;;;8.73;;
49812;SDS011;35706;52.100;5.056;2022-11-20T04:15:33;16.10;;;8.47;;
49812;SDS011;35706;52.100;5.056;2022-11-20T04:16:34;13.93;;;7.77;;
49812;SDS011;35706;52.100;5.056;2022-11-20T04:17:35;15.90;;;7.97;;
49812;SDS011;35706;52.100;5.056;2022-11-20T04:18:36;15.60;;;8.53;;
49812;SDS011;35706;52.100;5.056;2022-11-20T04:19:36;15.13;;;8.80;;
49812;SDS011;35706;52.100;5.056;2022-11-20T04:20:36;15.57;;;8.20;;
49812;SDS011;35706;52.100;5.056;2022-11-20T04:21:37;15.77;;;8.47;;
49812;SDS011;35706;52.100;5.056;2022-11-20T04:22:37;13.57;;;7.73;;
49812;SDS011;35706;52.100;5.056;2022-11-20T04:23:38;18.47;;;8.77;;
49812;SDS011;35706;52.100;5.056;2022-11-20T04:24:38;15.00;;;8.27;;
49812;SDS011;35706;52.100;5.056;2022-11-20T04:25:38;16.37;;;7.73;;
49812;SDS011;35706;52.100;5.056;2022-11-20T04:26:39;15.17;;;8.13;;
49812;SDS011;35706;52.100;5.056;2022-11-20T04:27:40;16.87;;;8.30;;
49812;SDS011;35706;52.100;5.056;2022-11-20T04:28:40;14.33;;;8.03;;
49812;SDS011;35706;52.100;5.056;2022-11-20T04:29:41;15.67;;;7.97;;
49812;SDS011;35706;52.100;5.056;2022-11-20T04:30:41;14.57;;;7.07;;
49812;SDS011;35706;52.100;5.056;2022-11-20T04:31:42;15.90;;;7.97;;
49812;SDS011;35706;52.100;5.056;2022-11-20T04:32:42;17.93;;;8.93;;
49812;SDS011;35706;52.100;5.056;2022-11-20T04:33:42;15.07;;;7.83;;
49812;SDS011;35706;52.100;5.056;2022-11-20T04:34:43;14.63;;;7.90;;
49812;SDS011;35706;52.100;5.056;2022-11-20T04:35:43;13.80;;;7.97;;
49812;SDS011;35706;52.100;5.056;2022-11-20T04:36:47;15.83;;;8.30;;
49812;SDS011;35706;52.100;5.056;2022-11-20T04:37:47;12.50;;;7.30;;
49812;SDS011;35706;52.100;5.056;2022-11-20T04:38:51;15.50;;;8.13;;
49812;SDS011;35706;52.100;5.056;2022-11-20T04:39:56;15.37;;;7.83;;
49812;SDS011;35706;52.100;5.056;2022-11-20T04:40:57;16.50;;;8.37;;
49812;SDS011;35706;52.100;5.056;2022-11-20T04:41:58;19.33;;;8.60;;
49812;SDS011;35706;52.100;5.056;2022-11-20T04:43:17;14.23;;;7.20;;
49812;SDS011;35706;52.100;5.056;2022-11-20T04:44:17;15.73;;;8.00;;
49812;SDS011;35706;52.100;5.056;2022-11-20T04:45:17;13.70;;;7.60;;
49812;SDS011;35706;52.100;5.056;2022-11-20T04:46:18;14.97;;;8.53;;
49812;SDS011;35706;52.100;5.056;2022-11-20T04:47:20;15.87;;;8.50;;
49812;SDS011;35706;52.100;5.056;2022-11-20T04:48:20;15.40;;;8.17;;
49812;SDS011;35706;52.100;5.056;2022-11-20T04:49:21;17.63;;;8.90;;
49812;SDS011;35706;52.100;5.056;2022-11-20T04:50:21;18.40;;;8.37;;
49812;SDS011;35706;52.100;5.056;2022-11-20T04:51:21;17.40;;;7.83;;
49812;SDS011;35706;52.100;5.056;2022-11-20T04:52:22;12.90;;;7.57;;
49812;SDS011;35706;52.100;5.056;2022-11-20T04:53:23;18.27;;;7.53;;
49812;SDS011;35706;52.100;5.056;2022-11-20T04:54:23;14.87;;;8.17;;
49812;SDS011;35706;52.100;5.056;2022-11-20T04:55:24;17.10;;;8.00;;
49812;SDS011;35706;52.100;5.056;2022-11-20T04:56:24;18.07;;;8.77;;
49812;SDS011;35706;52.100;5.056;2022-11-20T04:57:24;15.00;;;7.97;;
49812;SDS011;35706;52.100;5.056;2022-11-20T04:58:25;19.07;;;9.20;;
49812;SDS011;35706;52.100;5.056;2022-11-20T04:59:25;14.63;;;8.40;;
49812;SDS011;35706;52.100;5.056;2022-11-20T05:00:25;15.23;;;7.53;;
49812;SDS011;35706;52.100;5.056;2022-11-20T05:01:25;13.57;;;7.93;;
49812;SDS011;35706;52.100;5.056;2022-11-20T05:02:26;18.47;;;8.27;;
49812;SDS011;35706;52.100;5.056;2022-11-20T05:03:26;15.10;;;8.20;;
49812;SDS011;35706;52.100;5.056;2022-11-20T05:04:26;18.10;;;8.50;;
49812;SDS011;35706;52.100;5.056;2022-11-20T05:05:26;13.27;;;7.80;;
49812;SDS011;35706;52.100;5.056;2022-11-20T05:06:27;16.20;;;8.30;;
49812;SDS011;35706;52.100;5.056;2022-11-20T05:07:27;15.77;;;8.20;;
49812;SDS011;35706;52.100;5.056;2022-11-20T05:08:28;16.00;;;8.93;;
49812;SDS011;35706;52.100;5.056;2022-11-20T05:09:29;16.87;;;8.53;;
49812;SDS011;35706;52.100;5.056;2022-11-20T05:10:29;15.90;;;8.37;;
49812;SDS011;35706;52.100;5.056;2022-11-20T05:11:31;16.60;;;8.07;;
49812;SDS011;35706;52.100;5.056;2022-11-20T05:12:32;17.27;;;8.37;;
49812;SDS011;35706;52.100;5.056;2022-11-20T05:13:32;16.40;;;7.67;;
49812;SDS011;35706;52.100;5.056;2022-11-20T05:14:33;13.63;;;7.20;;
49812;SDS011;35706;52.100;5.056;2022-11-20T05:15:33;17.03;;;9.20;;
49812;SDS011;35706;52.100;5.056;2022-11-20T05:16:34;19.60;;;7.83;;
49812;SDS011;35706;52.100;5.056;2022-11-20T05:17:34;16.50;;;7.50;;
49812;SDS011;35706;52.100;5.056;2022-11-20T05:18:35;16.20;;;8.80;;
49812;SDS011;35706;52.100;5.056;2022-11-20T05:19:35;18.13;;;8.43;;
49812;SDS011;35706;52.100;5.056;2022-11-20T05:20:36;20.47;;;8.83;;
49812;SDS011;35706;52.100;5.056;2022-11-20T05:21:36;20.23;;;8.63;;
49812;SDS011;35706;52.100;5.056;2022-11-20T05:22:36;18.73;;;9.03;;
49812;SDS011;35706;52.100;5.056;2022-11-20T05:23:37;16.03;;;8.20;;
49812;SDS011;35706;52.100;5.056;2022-11-20T05:24:37;15.00;;;8.17;;
49812;SDS011;35706;52.100;5.056;2022-11-20T05:25:37;14.63;;;8.40;;
49812;SDS011;35706;52.100;5.056;2022-11-20T05:26:38;16.77;;;8.90;;
49812;SDS011;35706;52.100;5.056;2022-11-20T05:27:38;18.47;;;8.93;;
49812;SDS011;35706;52.100;5.056;2022-11-20T05:28:38;15.93;;;8.50;;
49812;SDS011;35706;52.100;5.056;2022-11-20T05:29:39;15.97;;;8.70;;
49812;SDS011;35706;52.100;5.056;2022-11-20T05:30:39;13.93;;;7.90;;
49812;SDS011;35706;52.100;5.056;2022-11-20T05:31:40;18.07;;;8.57;;
49812;SDS011;35706;52.100;5.056;2022-11-20T05:32:40;17.07;;;8.43;;
49812;SDS011;35706;52.100;5.056;2022-11-20T05:33:41;16.13;;;8.53;;
49812;SDS011;35706;52.100;5.056;2022-11-20T05:34:43;16.03;;;8.27;;
49812;SDS011;35706;52.100;5.056;2022-11-20T05:35:43;14.87;;;8.37;;
49812;SDS011;35706;52.100;5.056;2022-11-20T05:36:43;16.33;;;8.47;;
49812;SDS011;35706;52.100;5.056;2022-11-20T05:37:44;16.13;;;8.27;;
49812;SDS011;35706;52.100;5.056;2022-11-20T05:38:44;17.80;;;8.73;;
49812;SDS011;35706;52.100;5.056;2022-11-20T05:39:44;17.47;;;9.33;;
49812;SDS011;35706;52.100;5.056;2022-11-20T05:40:45;16.40;;;8.10;;
49812;SDS011;35706;52.100;5.056;2022-11-20T05:41:45;19.83;;;9.60;;
49812;SDS011;35706;52.100;5.056;2022-11-20T05:42:45;15.80;;;8.37;;
49812;SDS011;35706;52.100;5.056;2022-11-20T05:43:46;15.23;;;8.20;;
49812;SDS011;35706;52.100;5.056;2022-11-20T05:44:48;14.13;;;7.80;;
49812;SDS011;35706;52.100;5.056;2022-11-20T05:45:51;17.30;;;8.40;;
49812;SDS011;35706;52.100;5.056;2022-11-20T05:46:54;18.07;;;8.77;;
49812;SDS011;35706;52.100;5.056;2022-11-20T05:47:57;17.00;;;8.77;;
49812;SDS011;35706;52.100;5.056;2022-11-20T05:48:59;17.47;;;8.20;;
49812;SDS011;35706;52.100;5.056;2022-11-20T05:50:00;16.60;;;8.13;;
49812;SDS011;35706;52.100;5.056;2022-11-20T05:51:02;21.10;;;9.07;;
49812;SDS011;35706;52.100;5.056;2022-11-20T05:52:03;15.97;;;8.63;;
49812;SDS011;35706;52.100;5.056;2022-11-20T05:53:03;16.17;;;8.33;;
49812;SDS011;35706;52.100;5.056;2022-11-20T05:54:04;17.33;;;8.93;;
49812;SDS011;35706;52.100;5.056;2022-11-20T05:55:04;17.23;;;8.77;;
49812;SDS011;35706;52.100;5.056;2022-11-20T05:56:15;16.60;;;8.63;;
49812;SDS011;35706;52.100;5.056;2022-11-20T05:57:17;17.27;;;8.87;;
49812;SDS011;35706;52.100;5.056;2022-11-20T05:58:17;15.83;;;8.27;;
49812;SDS011;35706;52.100;5.056;2022-11-20T05:59:18;14.70;;;8.40;;
49812;SDS011;35706;52.100;5.056;2022-11-20T06:00:18;16.50;;;9.03;;
49812;SDS011;35706;52.100;5.056;2022-11-20T06:01:22;22.63;;;8.67;;
49812;SDS011;35706;52.100;5.056;2022-11-20T06:02:23;14.83;;;7.80;;
49812;SDS011;35706;52.100;5.056;2022-11-20T06:03:24;15.47;;;8.37;;
49812;SDS011;35706;52.100;5.056;2022-11-20T06:04:24;16.53;;;8.40;;
49812;SDS011;35706;52.100;5.056;2022-11-20T06:05:24;23.20;;;9.23;;
49812;SDS011;35706;52.100;5.056;2022-11-20T06:06:25;17.20;;;8.60;;
49812;SDS011;35706;52.100;5.056;2022-11-20T06:07:25;18.57;;;9.70;;
49812;SDS011;35706;52.100;5.056;2022-11-20T06:08:26;17.63;;;8.37;;